Greenwood, California
Current Conditions -  °F | °C
As of 8:35 AM on Wednesday 26 Nov 2014 (Local Time) from KAUN Reporting Station
Clear Clear  
Wind Chill: 55°   Ceiling: Unl
Heat Index: 55°   Visibility: 10mi
Dew Point: 39°   Wind: 6mph
Humidity: 54%   Direction: 100°E
Pressure: 30.35"   Gusts: NA
Location:  38.9°N, 120.91°W
Report Text: KAUN 261635Z AUTO 10005KT 10SM CLR 13/04 A3035 RMK AO1
Loading
Personal Weather Stations






























Interactive Weather Map New forecast layout! Learn more

10-Day Weather Forecast

Advertisements
Track Severe Weather on mobile